createdAt,value
2018-04-12T07:46:34.451Z,57.80
2018-04-12T07:47:34.771Z,51.80
2018-04-12T07:48:35.155Z,51.50
2018-04-12T07:49:34.335Z,51.30
2018-04-12T07:50:34.330Z,49.10
2018-04-12T07:51:34.813Z,49.50
2018-04-12T07:52:34.261Z,46.20
2018-04-12T07:53:34.240Z,50.50
2018-04-12T07:54:34.258Z,51.30
2018-04-12T07:55:34.244Z,47.80
2018-04-12T07:56:34.261Z,47.10
2018-04-12T07:57:34.293Z,49.80
2018-04-12T07:58:34.251Z,49.40
2018-04-12T07:59:34.256Z,48.10
2018-04-12T08:00:34.260Z,50.40
2018-04-12T08:01:34.261Z,48.20
2018-04-12T08:02:34.254Z,49.90
2018-04-12T08:03:34.285Z,48.40
2018-04-12T08:04:34.264Z,47.80
2018-04-12T08:05:34.270Z,49.50
2018-04-12T08:06:35.162Z,49.10
2018-04-12T08:07:34.315Z,49.70
2018-04-12T08:08:34.319Z,48.60
2018-04-12T08:09:34.295Z,49.30
2018-04-12T08:10:34.340Z,49.60
2018-04-12T08:11:34.315Z,48.60
2018-04-12T08:14:54.404Z,48.40
2018-04-12T08:15:44.688Z,48.00
2018-04-12T08:16:54.096Z,49.60
2018-04-12T08:18:38.108Z,49.50
2018-04-12T08:19:38.064Z,48.90
2018-04-12T08:20:38.061Z,47.00
2018-04-12T08:21:38.043Z,49.20
2018-04-12T08:22:38.065Z,48.10
2018-04-12T08:23:38.067Z,46.80
2018-04-12T08:24:38.077Z,48.90
2018-04-12T08:25:38.062Z,46.70
2018-04-12T08:26:38.058Z,48.00
2018-04-12T08:27:38.085Z,46.40
2018-04-12T08:28:38.068Z,44.60
2018-04-12T08:29:38.091Z,45.40
2018-04-12T08:30:38.126Z,45.10
2018-04-12T08:31:38.087Z,48.60
2018-04-12T08:32:39.034Z,46.40
2018-04-12T08:33:38.078Z,45.70
2018-04-12T08:34:38.110Z,44.40
2018-04-12T08:35:39.033Z,44.60
2018-04-12T08:36:38.089Z,44.20
2018-04-12T08:37:38.113Z,45.10
2018-04-12T08:38:38.105Z,43.90
2018-04-12T08:39:38.134Z,44.10
2018-04-12T08:40:38.124Z,43.30
2018-04-12T08:41:38.133Z,43.20
2018-04-12T08:42:38.110Z,43.70
2018-04-12T08:43:39.042Z,44.30
2018-04-12T08:44:38.116Z,43.40
2018-04-12T08:45:38.132Z,42.20
2018-04-12T08:46:38.136Z,42.30
2018-04-12T08:47:38.141Z,42.50
2018-04-12T08:48:38.142Z,42.60
2018-04-12T08:49:38.129Z,42.60
2018-04-12T08:50:38.146Z,42.90
2018-04-12T08:51:38.150Z,43.00
2018-04-12T08:52:39.039Z,42.90
2018-04-12T08:53:38.150Z,43.20
2018-04-12T08:54:38.138Z,42.20
2018-04-12T08:55:38.186Z,43.50
2018-04-12T08:56:38.192Z,43.90
2018-04-12T08:57:38.161Z,41.70
2018-04-12T08:58:38.159Z,43.50
2018-04-12T08:59:38.176Z,40.50
2018-04-12T09:00:38.228Z,42.10
2018-04-12T09:01:38.169Z,42.70
2018-04-12T09:02:38.280Z,43.10
2018-04-12T09:03:38.175Z,41.90
2018-04-12T09:04:38.175Z,40.30
2018-04-12T09:05:38.180Z,41.90
2018-04-12T09:06:38.188Z,42.60
2018-04-12T09:07:39.543Z,41.70
2018-04-12T09:08:38.186Z,41.60
2018-04-12T09:09:38.216Z,41.60
2018-04-12T09:10:38.197Z,40.40
2018-04-12T09:11:38.202Z,39.10
2018-04-12T09:12:38.199Z,40.70
2018-04-12T09:13:38.211Z,40.30
2018-04-12T09:14:38.244Z,41.30
2018-04-12T09:15:38.232Z,40.90
2018-04-12T09:16:38.228Z,40.60
2018-04-12T09:17:38.216Z,38.40
2018-04-12T09:18:38.235Z,40.70
2018-04-12T09:19:38.293Z,39.20
2018-04-12T09:20:38.232Z,38.70
2018-04-12T09:21:38.222Z,39.70
2018-04-12T09:22:38.224Z,39.70
2018-04-12T09:23:39.051Z,40.20
2018-04-12T09:24:38.229Z,40.10
2018-04-12T09:25:38.303Z,39.60
2018-04-12T09:26:38.231Z,38.00
2018-04-12T09:27:38.248Z,38.80
2018-04-12T09:28:38.244Z,38.00
2018-04-12T09:29:38.287Z,37.10
2018-04-12T09:30:38.248Z,38.40
2018-04-12T09:31:38.274Z,37.60
2018-04-12T09:32:38.304Z,37.10
2018-04-12T09:33:38.270Z,36.70
2018-04-12T09:34:38.303Z,35.80
2018-04-12T09:35:38.284Z,36.60
2018-04-12T09:36:38.274Z,34.80
2018-04-12T09:37:38.300Z,35.40
2018-04-12T09:38:38.267Z,35.10
2018-04-12T09:39:38.299Z,36.00
2018-04-12T09:40:38.284Z,36.40
2018-04-12T09:41:38.296Z,36.50
2018-04-12T09:42:38.302Z,36.50
2018-04-12T09:43:38.306Z,35.70
2018-04-12T09:44:38.337Z,34.90
2018-04-12T09:45:38.322Z,34.30
2018-04-12T09:46:39.060Z,35.80
2018-04-12T09:47:38.362Z,35.60
2018-04-12T09:48:38.353Z,35.80
2018-04-12T09:49:39.074Z,36.30
2018-04-12T09:50:38.334Z,34.20
2018-04-12T09:51:38.344Z,36.30
2018-04-12T09:52:38.404Z,34.90
2018-04-12T09:53:40.206Z,35.80
2018-04-12T09:54:38.419Z,34.70
2018-04-12T09:55:38.364Z,35.10
2018-04-12T09:56:38.388Z,36.60
2018-04-12T09:57:38.402Z,36.80
2018-04-12T09:58:38.400Z,35.80
2018-04-12T09:59:38.422Z,35.60
2018-04-12T10:00:38.397Z,37.50
2018-04-12T10:01:38.390Z,35.00
2018-04-12T10:02:38.412Z,35.40
2018-04-12T10:03:38.447Z,34.20
2018-04-12T10:04:38.418Z,34.40
2018-04-12T10:05:38.428Z,34.80
2018-04-12T10:06:38.484Z,34.50
2018-04-12T10:07:38.949Z,35.20
2018-04-12T10:08:38.451Z,34.30
2018-04-12T10:09:38.457Z,34.60
2018-04-12T10:10:38.445Z,34.80
2018-04-12T10:11:38.509Z,33.70
2018-04-12T10:12:38.455Z,35.60
2018-04-12T10:13:38.547Z,33.70
2018-04-12T10:14:38.460Z,34.30
2018-04-12T10:15:38.472Z,32.40
2018-04-12T10:16:38.495Z,33.10
2018-04-12T10:17:38.515Z,33.50
2018-04-12T10:18:38.492Z,43.30
2018-04-12T10:19:38.697Z,34.30
2018-04-12T10:20:38.501Z,32.40
2018-04-12T10:21:38.525Z,31.90
2018-04-12T10:22:38.532Z,33.00
2018-04-12T10:23:38.525Z,33.70
2018-04-12T10:24:38.536Z,32.00
2018-04-12T10:25:38.543Z,32.10
2018-04-12T10:26:38.549Z,33.80
2018-04-12T10:27:38.569Z,31.30
2018-04-12T10:28:38.727Z,32.30
2018-04-12T10:29:38.568Z,31.50
2018-04-12T10:30:39.085Z,30.80
2018-04-12T10:31:38.585Z,33.60
2018-04-12T10:32:38.589Z,32.50
2018-04-12T10:33:38.607Z,32.30
2018-04-12T10:34:38.635Z,31.80
2018-04-12T10:35:38.612Z,32.30
2018-04-12T10:36:38.619Z,30.80
2018-04-12T10:37:38.657Z,32.00
2018-04-12T10:38:38.695Z,30.50
2018-04-12T10:39:38.644Z,31.60
2018-04-12T10:40:38.730Z,30.30
2018-04-12T10:41:38.730Z,29.90
2018-04-12T10:42:38.684Z,30.30
2018-04-12T10:43:38.698Z,30.20
2018-04-12T10:44:38.695Z,29.60
2018-04-12T10:45:38.718Z,29.20
2018-04-12T10:46:38.728Z,30.60
2018-04-12T10:47:38.816Z,30.20
2018-04-12T10:48:38.827Z,29.70
2018-04-12T10:49:38.797Z,28.80
2018-04-12T10:50:38.762Z,28.50
2018-04-12T10:51:38.778Z,29.00
2018-04-12T10:52:38.781Z,29.80
2018-04-12T10:53:38.795Z,29.20
2018-04-12T10:54:38.781Z,30.10
2018-04-12T10:55:38.809Z,30.80
2018-04-12T10:56:38.807Z,29.80
2018-04-12T10:57:38.820Z,30.20
2018-04-12T10:58:38.819Z,30.10
2018-04-12T10:59:38.829Z,30.00
2018-04-12T11:00:39.598Z,30.20
2018-04-12T11:01:38.855Z,28.50
2018-04-12T11:02:38.870Z,28.40
2018-04-12T11:03:38.881Z,30.10
2018-04-12T11:04:38.896Z,30.10
2018-04-12T11:05:38.896Z,34.30
2018-04-12T11:06:38.899Z,29.80
2018-04-12T11:07:38.966Z,29.80
2018-04-12T11:08:38.990Z,30.30
2018-04-12T11:09:38.977Z,31.20
2018-04-12T11:10:38.939Z,29.70
2018-04-12T11:11:39.013Z,29.40
2018-04-12T11:12:38.994Z,31.90
2018-04-12T11:13:39.042Z,30.00
2018-04-12T11:14:39.017Z,31.70
2018-04-12T11:15:39.028Z,31.10
2018-04-12T11:16:39.070Z,31.70
2018-04-12T11:17:39.057Z,31.80
2018-04-12T11:18:39.072Z,31.10
2018-04-12T11:19:39.042Z,32.30
2018-04-12T11:20:39.075Z,32.70
2018-04-12T11:21:39.065Z,33.30
2018-04-12T11:22:39.086Z,32.40
2018-04-12T11:23:39.117Z,33.90
2018-04-12T11:24:39.101Z,34.00
2018-04-12T11:25:39.117Z,32.50
2018-04-12T11:26:39.456Z,34.40
2018-04-12T11:27:39.123Z,34.00
2018-04-12T11:28:39.157Z,32.80
2018-04-12T11:29:39.122Z,34.70
2018-04-12T11:30:39.176Z,34.20
2018-04-12T11:31:39.183Z,35.50
2018-04-12T11:32:39.146Z,34.90
2018-04-12T11:33:39.147Z,34.20
2018-04-12T11:34:39.157Z,33.60
2018-04-12T11:35:39.160Z,37.70
2018-04-12T11:36:39.176Z,35.80
2018-04-12T11:37:39.168Z,38.40
2018-04-12T11:38:39.169Z,34.70
2018-04-12T11:39:40.121Z,35.10
2018-04-12T11:40:39.207Z,36.00
2018-04-12T11:41:39.217Z,35.60
2018-04-12T11:42:40.125Z,34.00
2018-04-12T11:43:39.206Z,34.90
2018-04-12T11:44:39.269Z,35.90
2018-04-12T11:45:39.239Z,36.60
2018-04-12T11:46:40.130Z,35.60
2018-04-12T11:47:39.275Z,36.00
2018-04-12T11:48:39.273Z,34.90
2018-04-12T11:49:39.318Z,34.90
2018-04-12T11:50:39.275Z,36.60
2018-04-12T11:51:39.306Z,36.10
2018-04-12T11:52:40.132Z,36.60
2018-04-12T11:53:39.264Z,35.40
2018-04-12T11:54:39.265Z,37.10
2018-04-12T11:55:39.327Z,36.10
2018-04-12T11:56:40.170Z,34.70
2018-04-12T11:57:39.450Z,37.10
2018-04-12T11:58:39.406Z,34.30
2018-04-12T11:59:39.343Z,37.30
2018-04-12T12:00:39.369Z,37.10
2018-04-12T12:01:39.398Z,37.10
2018-04-12T12:02:39.328Z,39.20
2018-04-12T12:03:39.329Z,37.50
2018-04-12T12:04:40.229Z,36.90
2018-04-12T12:05:39.329Z,37.30
2018-04-12T12:06:39.321Z,39.10
2018-04-12T12:07:39.358Z,38.10
2018-04-12T12:08:39.337Z,37.40
2018-04-12T12:09:41.213Z,38.20
2018-04-12T12:10:39.344Z,38.10
2018-04-12T12:11:39.347Z,41.20
2018-04-12T12:12:39.350Z,37.60
2018-04-12T12:13:40.180Z,40.40
2018-04-12T12:14:39.388Z,40.30
2018-04-12T12:15:39.373Z,38.70
2018-04-12T12:16:39.380Z,40.10
2018-04-12T12:17:39.380Z,42.00
2018-04-12T12:18:39.376Z,41.80
2018-04-12T12:19:39.396Z,42.70
2018-04-12T12:20:39.455Z,40.30
2018-04-12T12:21:39.390Z,40.60
2018-04-12T12:22:39.390Z,40.30
2018-04-12T12:23:39.415Z,41.50
2018-04-12T12:24:39.400Z,43.50
2018-04-12T12:25:39.411Z,43.60
2018-04-12T12:26:39.419Z,42.20
2018-04-12T12:27:39.437Z,41.20
2018-04-12T12:28:39.456Z,43.70
2018-04-12T12:29:39.427Z,42.10
2018-04-12T12:30:39.551Z,43.60
2018-04-12T12:31:39.450Z,42.70
2018-04-12T12:32:39.437Z,41.70
2018-04-12T12:33:39.458Z,42.70
2018-04-12T12:34:39.458Z,47.10
2018-04-12T12:35:39.454Z,42.70
2018-04-12T12:36:39.458Z,44.80
2018-04-12T12:37:39.474Z,43.70
2018-04-12T12:38:39.466Z,42.70
2018-04-12T12:39:39.481Z,42.70
2018-04-12T12:40:39.508Z,43.90
2018-04-12T12:41:39.493Z,42.30
2018-04-12T12:42:39.482Z,44.30
2018-04-12T12:43:39.509Z,45.10
2018-04-12T12:44:39.496Z,43.10
2018-04-12T12:45:39.508Z,44.70
2018-04-12T12:46:39.511Z,42.80
2018-04-12T12:47:39.519Z,42.50
2018-04-12T12:48:39.515Z,43.40
2018-04-12T12:49:39.518Z,43.40
2018-04-12T12:50:39.539Z,44.80
2018-04-12T12:51:39.644Z,45.50
2018-04-12T12:52:40.156Z,45.90
2018-04-12T12:53:40.154Z,45.10
2018-04-12T12:54:39.544Z,43.60
2018-04-12T12:55:39.546Z,55.00
2018-04-12T12:56:39.545Z,59.60
2018-04-12T12:57:39.582Z,58.40
2018-04-12T12:58:39.571Z,47.60
2018-04-12T12:59:39.555Z,45.20
2018-04-12T13:00:39.612Z,44.70
2018-04-12T13:01:39.601Z,43.20
2018-04-12T13:02:39.572Z,44.40
2018-04-12T13:03:39.596Z,45.80
2018-04-12T13:04:59.228Z,45.50
2018-04-12T13:05:40.188Z,46.20
2018-04-12T13:06:42.667Z,45.60
2018-04-12T13:07:40.169Z,44.50
2018-04-12T13:08:40.190Z,46.80
2018-04-12T13:09:40.176Z,46.70
2018-04-12T13:10:39.605Z,45.90
2018-04-12T13:11:39.609Z,47.30
2018-04-12T13:12:39.611Z,47.50
2018-04-12T13:13:39.621Z,46.20
2018-04-12T13:14:40.161Z,48.40
2018-04-12T13:15:39.617Z,47.60
2018-04-12T13:16:39.638Z,46.40
2018-04-12T13:17:39.638Z,47.20
2018-04-12T13:18:39.642Z,46.00
2018-04-12T13:19:39.633Z,47.40
2018-04-12T13:20:40.169Z,46.60
2018-04-12T13:21:39.979Z,47.50
2018-04-12T13:22:39.649Z,46.90
2018-04-12T13:23:39.653Z,45.00
2018-04-12T13:24:39.646Z,47.60
2018-04-12T13:25:39.656Z,48.40
2018-04-12T13:26:41.457Z,47.40
2018-04-12T13:27:39.696Z,44.90
2018-04-12T13:28:39.684Z,46.20
2018-04-12T13:29:39.678Z,48.20
2018-04-12T13:30:39.688Z,47.70
2018-04-12T13:31:39.699Z,45.70
2018-04-12T13:32:39.708Z,46.10
2018-04-12T13:33:39.712Z,47.00
2018-04-12T13:34:39.722Z,47.60
2018-04-12T13:35:44.207Z,46.40
2018-04-12T13:36:43.171Z,49.10
2018-04-12T13:37:41.178Z,46.60
2018-04-12T13:38:39.731Z,45.10
2018-04-12T13:39:39.712Z,45.10
2018-04-12T13:40:39.711Z,47.70
2018-04-12T13:41:39.775Z,46.70
2018-04-12T13:42:39.723Z,46.50
2018-04-12T13:43:39.728Z,44.80
2018-04-12T13:44:39.737Z,47.20
2018-04-12T13:45:39.746Z,42.70
2018-04-12T13:46:39.733Z,46.80
2018-04-12T13:47:39.745Z,47.20
2018-04-12T13:48:39.764Z,47.60
2018-04-12T13:49:39.772Z,47.40
2018-04-12T13:50:39.751Z,47.00
2018-04-12T13:51:39.754Z,49.90
2018-04-12T13:52:39.793Z,53.10
2018-04-12T13:53:39.764Z,47.70
2018-04-12T13:54:39.769Z,48.00
2018-04-12T13:55:39.784Z,47.70
2018-04-12T13:56:39.829Z,47.40
2018-04-12T13:57:39.786Z,48.60
2018-04-12T13:58:39.777Z,49.60
2018-04-12T13:59:39.785Z,47.80
2018-04-12T14:00:39.838Z,48.40
2018-04-12T14:01:39.800Z,47.40
2018-04-12T14:02:39.822Z,49.30
2018-04-12T14:03:39.793Z,48.60
2018-04-12T14:04:39.900Z,48.80
2018-04-12T14:05:39.800Z,47.40
2018-04-12T14:06:39.822Z,49.60
2018-04-12T14:07:39.812Z,49.70
2018-04-12T14:08:40.681Z,49.70
2018-04-12T14:09:39.839Z,50.20
2018-04-12T14:10:39.846Z,50.80
2018-04-12T14:11:40.682Z,51.00
2018-04-12T14:12:39.841Z,48.50
2018-04-12T14:13:39.836Z,51.90
2018-04-12T14:14:39.831Z,51.20
2018-04-12T14:15:39.852Z,50.30
2018-04-12T14:16:39.857Z,49.90
2018-04-12T14:17:39.851Z,50.80
2018-04-12T14:18:39.841Z,50.30
2018-04-12T14:19:39.850Z,51.70
2018-04-12T14:20:39.856Z,49.10
2018-04-12T14:21:39.862Z,48.90
2018-04-12T14:22:39.869Z,51.40
2018-04-12T14:23:39.871Z,51.50
2018-04-12T14:24:39.879Z,50.30
2018-04-12T14:25:39.910Z,52.10
2018-04-12T14:26:39.875Z,51.60
2018-04-12T14:27:39.874Z,50.90
2018-04-12T14:28:39.884Z,51.20
2018-04-12T14:29:39.958Z,51.20
2018-04-12T14:30:39.905Z,49.80
2018-04-12T14:31:40.014Z,51.40
2018-04-12T14:32:39.899Z,50.10
2018-04-12T14:33:39.936Z,50.10
2018-04-12T14:34:40.020Z,51.50
2018-04-12T14:35:39.964Z,49.40
2018-04-12T14:36:39.922Z,51.50
2018-04-12T14:37:39.925Z,51.00
2018-04-12T14:38:39.934Z,50.70
2018-04-12T14:39:39.946Z,51.10
2018-04-12T14:40:39.951Z,50.80
2018-04-12T14:41:40.696Z,49.30
2018-04-12T14:42:39.943Z,50.50
2018-04-12T14:43:39.945Z,49.60
2018-04-12T14:44:39.958Z,50.70
2018-04-12T14:45:39.954Z,50.40
2018-04-12T14:46:40.086Z,50.40
2018-04-12T14:47:40.010Z,51.80
2018-04-12T14:48:40.696Z,49.70
2018-04-12T14:49:39.963Z,51.90
2018-04-12T14:50:39.975Z,51.50
2018-04-12T14:51:39.979Z,50.80
2018-04-12T14:52:40.716Z,50.20
2018-04-12T14:53:39.988Z,51.60
2018-04-12T14:54:39.989Z,51.70
2018-04-12T14:55:39.992Z,50.80
2018-04-12T14:56:40.702Z,50.00
2018-04-12T14:57:40.029Z,50.50
2018-04-12T14:58:40.002Z,51.70
2018-04-12T14:59:40.025Z,50.10
2018-04-12T15:00:40.082Z,51.80
2018-04-12T15:01:40.019Z,50.00
2018-04-12T15:02:40.031Z,52.10
2018-04-12T15:03:40.024Z,51.80
2018-04-12T15:04:40.028Z,52.00
2018-04-12T15:05:40.025Z,52.20
2018-04-12T15:06:40.035Z,52.80
2018-04-12T15:07:40.057Z,50.30
2018-04-12T15:08:40.055Z,51.50
2018-04-12T15:09:40.718Z,53.00
2018-04-12T15:10:40.057Z,51.80
2018-04-12T15:11:40.042Z,51.90
2018-04-12T15:12:40.067Z,52.10
2018-04-12T15:13:40.077Z,51.80
2018-04-12T15:14:40.071Z,51.80
2018-04-12T15:15:40.118Z,51.50
2018-04-12T15:16:40.067Z,53.20
2018-04-12T15:17:40.077Z,52.30
2018-04-12T15:18:40.085Z,52.40
2018-04-12T15:19:40.078Z,52.30
2018-04-12T15:20:40.107Z,51.50
2018-04-12T15:21:40.091Z,52.20
2018-04-12T15:22:40.135Z,50.80
2018-04-12T15:23:40.101Z,50.90
2018-04-12T15:24:40.108Z,51.50
2018-04-12T15:25:40.154Z,52.30
2018-04-12T15:26:40.146Z,51.20
2018-04-12T15:27:40.128Z,51.30
2018-04-12T15:28:40.165Z,52.20
2018-04-12T15:29:40.123Z,53.10
2018-04-12T15:30:40.712Z,52.90
2018-04-12T15:31:40.126Z,51.30
2018-04-12T15:32:40.136Z,49.90
2018-04-12T15:33:40.139Z,52.10
2018-04-12T15:34:40.139Z,50.70
2018-04-12T15:35:40.153Z,52.20
2018-04-12T15:36:40.191Z,52.80
2018-04-12T15:37:40.176Z,52.10
2018-04-12T15:38:40.161Z,52.80
2018-04-12T15:39:40.166Z,51.90
2018-04-12T15:40:40.176Z,52.20
2018-04-12T15:41:40.174Z,51.00
2018-04-12T15:42:40.175Z,54.30
2018-04-12T15:43:40.174Z,52.60
2018-04-12T15:44:40.177Z,52.50
2018-04-12T15:45:40.243Z,52.60
2018-04-12T15:46:40.267Z,52.50
2018-04-12T15:47:40.201Z,53.40
2018-04-12T15:48:40.202Z,53.30
2018-04-12T15:49:40.227Z,52.50
2018-04-12T15:50:40.231Z,52.60
2018-04-12T15:51:40.209Z,54.00
2018-04-12T15:52:40.216Z,52.20
2018-04-12T15:53:40.223Z,53.30
2018-04-12T15:54:40.225Z,52.70
2018-04-12T15:55:40.222Z,54.00
2018-04-12T15:56:40.230Z,55.90
2018-04-12T15:57:40.296Z,55.20
2018-04-12T15:58:40.229Z,54.10
2018-04-12T15:59:40.236Z,52.20
2018-04-12T16:00:40.246Z,54.20
2018-04-12T16:01:40.244Z,53.80
2018-04-12T16:02:40.249Z,54.20
2018-04-12T16:03:40.322Z,55.20
2018-04-12T16:04:40.258Z,54.50
2018-04-12T16:05:40.268Z,52.20
2018-04-12T16:06:40.264Z,54.20
2018-04-12T16:07:41.684Z,54.80
2018-04-12T16:08:40.299Z,54.10
2018-04-12T16:09:40.280Z,54.00
2018-04-12T16:10:40.310Z,53.50
2018-04-12T16:11:40.304Z,54.20
2018-04-12T16:12:40.288Z,53.80
2018-04-12T16:13:40.297Z,54.40
2018-04-12T16:14:40.295Z,55.20
2018-04-12T16:15:40.306Z,54.40
2018-04-12T16:16:40.314Z,52.30
2018-04-12T16:17:40.302Z,55.00
2018-04-12T16:18:40.342Z,59.80
2018-04-12T16:19:40.317Z,57.30
2018-04-12T16:20:40.408Z,56.20
2018-04-12T16:21:40.328Z,57.90
2018-04-12T16:22:40.328Z,54.40
2018-04-12T16:23:40.333Z,54.90
2018-04-12T16:24:40.395Z,53.50
2018-04-12T16:25:40.371Z,56.20
2018-04-12T16:26:40.367Z,54.30
2018-04-12T16:29:00.508Z,54.70
2018-04-12T16:29:40.370Z,52.90
2018-04-12T16:30:40.355Z,56.10
2018-04-12T16:31:40.402Z,56.50
2018-04-12T16:32:40.361Z,55.40
2018-04-12T16:33:40.366Z,55.80
2018-04-12T16:34:40.371Z,55.20
2018-04-12T16:35:40.390Z,54.00
2018-04-12T16:36:40.377Z,53.30
2018-04-12T16:37:40.389Z,55.70
2018-04-12T16:38:40.402Z,55.30
2018-04-12T16:39:40.432Z,54.20
2018-04-12T16:40:40.396Z,55.20
2018-04-12T16:41:40.386Z,54.60
2018-04-12T16:42:40.392Z,54.80
2018-04-12T16:43:40.434Z,54.70
2018-04-12T16:44:40.420Z,57.80
2018-04-12T16:45:40.469Z,55.90
2018-04-12T16:46:40.459Z,57.80
2018-04-12T16:47:40.552Z,56.50
2018-04-12T16:48:40.488Z,54.50
2018-04-12T16:49:40.431Z,54.50
2018-04-12T16:50:40.420Z,57.60
2018-04-12T16:51:40.432Z,63.80
2018-04-12T16:52:40.432Z,65.20
2018-04-12T16:53:40.441Z,65.50
2018-04-12T16:54:40.440Z,69.90
2018-04-12T16:55:40.432Z,72.40
2018-04-12T16:56:40.445Z,73.90
2018-04-12T16:57:40.451Z,69.00
2018-04-12T16:58:40.452Z,68.20
2018-04-12T16:59:40.457Z,62.60
2018-04-12T17:00:40.538Z,59.30
2018-04-12T17:01:40.467Z,59.40
2018-04-12T17:02:40.464Z,58.80
2018-04-12T17:03:40.492Z,58.30
2018-04-12T17:04:40.463Z,37.40
2018-04-12T17:05:40.469Z,42.00
2018-04-12T17:06:40.474Z,33.80
2018-04-12T17:07:40.479Z,39.80
2018-04-12T17:08:40.596Z,43.20
2018-04-12T17:09:40.486Z,50.60
2018-04-12T17:10:40.496Z,44.10
2018-04-12T17:11:40.482Z,38.00
2018-04-12T17:12:40.501Z,33.80
2018-04-12T17:13:40.505Z,33.40
2018-04-12T17:14:40.509Z,35.90
2018-04-12T17:15:40.503Z,39.70
2018-04-12T17:16:40.511Z,40.10
2018-04-12T17:17:40.513Z,32.70
2018-04-12T17:18:40.548Z,29.90
2018-04-12T17:19:40.521Z,24.20
2018-04-12T17:20:40.529Z,28.80
2018-04-12T17:21:40.535Z,23.10
2018-04-12T17:22:40.534Z,22.70
2018-04-12T17:23:40.525Z,19.50
2018-04-12T17:24:40.631Z,15.20
2018-04-12T17:25:40.531Z,15.00
2018-04-12T17:26:40.554Z,14.60
2018-04-12T17:27:40.551Z,14.10
2018-04-12T17:28:40.573Z,14.10
2018-04-12T17:29:41.362Z,15.80
2018-04-12T17:30:40.554Z,16.60
2018-04-12T17:31:41.368Z,14.10
2018-04-12T17:32:40.621Z,15.10
2018-04-12T17:33:40.576Z,17.10
2018-04-12T17:34:40.577Z,19.10
2018-04-12T17:35:40.591Z,18.30
2018-04-12T17:36:40.574Z,15.80
2018-04-12T17:37:40.574Z,18.10
2018-04-12T17:38:40.577Z,14.60
2018-04-12T17:39:40.583Z,14.40
2018-04-12T17:40:40.579Z,12.20
2018-04-12T17:41:40.596Z,13.30
2018-04-12T17:42:40.598Z,13.90
2018-04-12T17:43:40.596Z,12.70
2018-04-12T17:44:40.593Z,14.90
2018-04-12T17:45:40.601Z,15.40
2018-04-12T17:46:40.608Z,14.40
2018-04-12T17:47:40.616Z,14.70
2018-04-12T17:48:40.613Z,17.10
2018-04-12T17:49:40.616Z,16.40
2018-04-12T17:50:40.642Z,16.40
2018-04-12T17:51:40.630Z,17.20
2018-04-12T17:52:40.616Z,17.50
2018-04-12T17:53:40.628Z,17.80
2018-04-12T17:54:40.649Z,18.60
2018-04-12T17:55:40.629Z,18.50
2018-04-12T17:56:40.635Z,18.10
2018-04-12T17:57:40.635Z,16.90
2018-04-12T17:58:40.642Z,17.10
2018-04-12T17:59:40.651Z,18.10
2018-04-12T18:00:40.673Z,16.30
2018-04-12T18:01:40.657Z,17.10
2018-04-12T18:02:40.670Z,20.40
2018-04-12T18:03:40.664Z,20.20
2018-04-12T18:04:40.662Z,19.70
2018-04-12T18:05:40.658Z,22.30
2018-04-12T18:06:40.666Z,21.30
2018-04-12T18:07:40.663Z,22.00
2018-04-12T18:08:40.733Z,25.60
2018-04-12T18:09:40.680Z,22.30
2018-04-12T18:10:40.675Z,22.30
2018-04-12T18:11:40.683Z,23.60
2018-04-12T18:12:40.683Z,23.30
2018-04-12T18:13:40.683Z,22.50
2018-04-12T18:14:40.691Z,21.80
2018-04-12T18:15:40.709Z,23.70
2018-04-12T18:16:40.697Z,25.30
2018-04-12T18:17:40.704Z,25.00
2018-04-12T18:18:40.715Z,25.90
2018-04-12T18:19:40.714Z,26.50
2018-04-12T18:20:40.721Z,27.20
2018-04-12T18:21:40.709Z,26.50
2018-04-12T18:22:40.728Z,27.30
2018-04-12T18:23:40.717Z,28.70
2018-04-12T18:24:40.713Z,29.40
2018-04-12T18:25:40.736Z,28.40
2018-04-12T18:26:40.720Z,29.80
2018-04-12T18:27:40.731Z,30.30
2018-04-12T18:28:40.743Z,28.90
2018-04-12T18:29:40.727Z,30.50
2018-04-12T18:30:40.735Z,30.00
2018-04-12T18:31:40.734Z,30.30
2018-04-12T18:32:40.754Z,30.00
2018-04-12T18:33:40.750Z,30.90
2018-04-12T18:34:40.741Z,29.90
2018-04-12T18:35:40.768Z,31.00
2018-04-12T18:36:40.778Z,31.40
2018-04-12T18:37:40.766Z,30.70
2018-04-12T18:38:40.760Z,31.00
2018-04-12T18:39:40.763Z,32.00
2018-04-12T18:40:40.762Z,30.70
2018-04-12T18:41:40.769Z,31.70
2018-04-12T18:42:40.838Z,32.20
2018-04-12T18:43:41.233Z,34.30
2018-04-12T18:44:40.783Z,35.50
2018-04-12T18:45:40.779Z,35.50
2018-04-12T18:46:40.801Z,38.30
2018-04-12T18:47:40.778Z,38.10
2018-04-12T18:48:40.798Z,39.40
2018-04-12T18:49:40.824Z,41.10
2018-04-12T18:50:40.798Z,41.80
2018-04-12T18:51:40.793Z,43.20
2018-04-12T18:52:40.817Z,43.40
2018-04-12T18:53:40.809Z,44.10
2018-04-12T18:54:40.874Z,44.90
2018-04-12T18:55:40.806Z,45.90
2018-04-12T18:56:40.808Z,46.90
2018-04-12T18:57:40.813Z,46.30
2018-04-12T18:58:40.815Z,48.10
2018-04-12T18:59:40.817Z,47.50
2018-04-12T19:00:40.846Z,50.40
2018-04-12T19:01:40.841Z,49.80
2018-04-12T19:02:40.829Z,49.00
2018-04-12T19:03:40.838Z,52.20
2018-04-12T19:04:40.834Z,52.80
2018-04-12T19:05:40.839Z,53.50
2018-04-12T19:06:40.858Z,54.70
2018-04-12T19:07:40.850Z,57.00
2018-04-12T19:08:40.863Z,58.30
2018-04-12T19:09:40.920Z,60.70
2018-04-12T19:10:40.854Z,60.60
2018-04-12T19:11:40.855Z,61.10
2018-04-12T19:12:40.855Z,63.10
2018-04-12T19:13:40.893Z,64.70
2018-04-12T19:14:40.864Z,66.80
2018-04-12T19:15:40.873Z,68.30
2018-04-12T19:16:40.909Z,67.20
2018-04-12T19:17:40.879Z,69.00
2018-04-12T19:18:40.876Z,68.30
2018-04-12T19:19:40.878Z,67.00
2018-04-12T19:20:40.883Z,66.90
2018-04-12T19:21:40.892Z,67.30
2018-04-12T19:22:40.895Z,69.60
2018-04-12T19:23:40.916Z,71.10
2018-04-12T19:24:40.884Z,69.60
2018-04-12T19:25:40.893Z,73.90
2018-04-12T19:26:40.900Z,70.80
2018-04-12T19:27:40.920Z,70.80
2018-04-12T19:28:40.899Z,71.50
2018-04-12T19:29:40.906Z,72.00
2018-04-12T19:30:41.404Z,72.30
2018-04-12T19:31:40.912Z,71.70
2018-04-12T19:32:40.925Z,72.10
2018-04-12T19:33:40.912Z,72.60
2018-04-12T19:34:41.409Z,72.50
2018-04-12T19:35:40.932Z,75.00
2018-04-12T19:36:40.995Z,73.40
2018-04-12T19:37:40.948Z,74.80
2018-04-12T19:38:40.942Z,74.40
2018-04-12T19:39:40.933Z,75.00
2018-04-12T19:40:40.958Z,75.90
2018-04-12T19:41:40.990Z,173.90
2018-04-12T19:42:40.945Z,102.50
2018-04-12T19:43:40.950Z,104.00
2018-04-12T19:44:40.951Z,101.80
2018-04-12T19:45:40.955Z,80.30
2018-04-12T19:46:40.959Z,74.90
2018-04-12T19:47:41.010Z,77.90
2018-04-12T19:48:40.953Z,77.70
2018-04-12T19:49:42.133Z,79.30
2018-04-12T19:50:41.014Z,76.30
2018-04-12T19:51:40.982Z,76.30
2018-04-12T19:52:40.982Z,77.50
2018-04-12T19:53:40.969Z,75.90
2018-04-12T19:54:40.972Z,75.00
2018-04-12T19:55:40.987Z,77.40
2018-04-12T19:56:40.987Z,79.00
2018-04-12T19:57:41.915Z,77.00
2018-04-12T19:58:40.990Z,79.50
2018-04-12T19:59:41.009Z,79.60
2018-04-12T20:00:41.034Z,79.90
2018-04-12T20:01:41.045Z,78.60
2018-04-12T20:02:41.000Z,78.10
2018-04-12T20:03:41.003Z,79.80
2018-04-12T20:04:41.011Z,77.80
2018-04-12T20:05:41.021Z,80.30
2018-04-12T20:06:41.022Z,80.20
2018-04-12T20:07:41.016Z,82.00
2018-04-12T20:08:41.026Z,78.70
2018-04-12T20:09:41.025Z,79.80
2018-04-12T20:10:41.027Z,80.50
2018-04-12T20:11:41.030Z,79.70
2018-04-12T20:12:41.038Z,80.30
2018-04-12T20:13:41.037Z,80.40
2018-04-12T20:14:41.034Z,82.90
2018-04-12T20:15:41.035Z,81.00
2018-04-12T20:16:41.044Z,79.00
2018-04-12T20:17:41.058Z,82.80
2018-04-12T20:18:41.927Z,79.70
2018-04-12T20:19:41.060Z,80.50
2018-04-12T20:20:41.941Z,82.40
2018-04-12T20:21:41.050Z,81.70
2018-04-12T20:22:41.128Z,82.20
2018-04-12T20:23:41.067Z,83.30
2018-04-12T20:24:41.096Z,81.40
2018-04-12T20:25:41.061Z,82.70
2018-04-12T20:26:41.056Z,78.40
2018-04-12T20:27:41.059Z,82.00
2018-04-12T20:28:41.080Z,81.10
2018-04-12T20:29:41.087Z,84.90
2018-04-12T20:30:41.097Z,86.60
2018-04-12T20:31:41.087Z,86.20
2018-04-12T20:32:41.088Z,83.90
2018-04-12T20:33:41.091Z,82.20
2018-04-12T20:34:41.239Z,83.80
2018-04-12T20:35:41.091Z,86.00
2018-04-12T20:36:41.097Z,84.40
2018-04-12T20:37:41.095Z,84.50
2018-04-12T20:38:41.122Z,90.40
2018-04-12T20:39:41.123Z,90.90
2018-04-12T20:40:41.113Z,89.10
2018-04-12T20:41:41.119Z,91.40
2018-04-12T20:42:41.105Z,90.60